Cairo, Egypt
Current Conditions -  °F | °C
As of 12:30 AM on Monday 26 Jan 2015 (Local Time) from HECA Reporting Station
Clear Clear  
Wind Chill: 16°   Ceiling: Unl
Heat Index: 16°   Visibility: 6mi
Dew Point: 13°   Wind: 7mph
Humidity: 82%   Direction: 30°NNE
Pressure: 30.06"   Gusts: NA
Location:  30.06°N, 31.25°E
Report Text: HECA 252230Z 03006KT CAVOK 16/13 Q1018 NOSIG
Loading
Personal Weather Stations






























Interactive Weather Map New forecast layout! Learn more

10-Day Weather Forecast

Advertisements
Track Severe Weather on mobile